Time;durP1;ratioP1;P1;durP2;ratioP2;P2;SDS_P1;SDS_P2;PMS_P1;PMS_P2;Temp;Humidity;BMP_temperature;BMP_pressure;BME280_temperature;BME280_humidity;BME280_pressure;Samples;Min_cycle;Max_cycle;Signal;HPM_P1;HPM_P2
2022/11/12 00:00:17;;;;;;;18.65;11.48;;;7.80;99.90;;;;;;4925986;28;20056;-71
2022/11/12 00:02:43;;;;;;;19.33;11.70;;;7.80;99.90;;;;;;4929034;29;20048;-68
2022/11/12 00:05:09;;;;;;;16.58;11.27;;;7.80;99.90;;;;;;4928836;29;20547;-68
2022/11/12 00:07:35;;;;;;;19.40;11.60;;;7.80;99.90;;;;;;4929713;28;20051;-70
2022/11/12 00:10:01;;;;;;;19.00;12.32;;;7.80;99.90;;;;;;4934273;29;20087;-70
2022/11/12 00:12:27;;;;;;;18.30;11.80;;;7.80;99.90;;;;;;4934591;29;20129;-71
2022/11/12 00:14:52;;;;;;;15.57;10.75;;;7.80;99.90;;;;;;4916935;29;20055;-70
2022/11/12 00:17:18;;;;;;;18.02;11.13;;;7.90;99.90;;;;;;4926055;28;20090;-72
2022/11/12 00:19:44;;;;;;;16.60;10.88;;;7.80;99.90;;;;;;4931363;28;20051;-72
2022/11/12 00:22:10;;;;;;;17.75;11.48;;;7.80;99.90;;;;;;4940120;28;20043;-71
2022/11/12 00:24:36;;;;;;;19.98;11.27;;;7.80;99.90;;;;;;4931990;28;20847;-71
2022/11/12 00:27:01;;;;;;;15.32;11.07;;;7.80;99.90;;;;;;4931339;28;20126;-69
2022/11/12 00:29:27;;;;;;;16.80;11.38;;;7.80;99.90;;;;;;4934113;29;20047;-71
2022/11/12 00:31:53;;;;;;;20.42;11.82;;;7.70;99.90;;;;;;4919873;29;20055;-68
2022/11/12 00:34:19;;;;;;;21.77;11.75;;;7.70;99.90;;;;;;4932811;29;20566;-71
2022/11/12 00:36:44;;;;;;;17.33;11.45;;;7.70;99.90;;;;;;4932296;28;20059;-70
2022/11/12 00:39:10;;;;;;;18.25;11.00;;;7.70;99.90;;;;;;4915536;29;20047;-69
2022/11/12 00:41:36;;;;;;;25.52;11.57;;;7.70;99.90;;;;;;4932356;29;20125;-71
2022/11/12 00:44:02;;;;;;;18.55;11.07;;;7.70;99.90;;;;;;4916665;29;20051;-70
2022/11/12 00:46:28;;;;;;;17.02;11.10;;;7.70;99.90;;;;;;4932665;29;20159;-70
2022/11/12 00:48:54;;;;;;;16.48;10.68;;;7.70;99.90;;;;;;4939457;29;20056;-70
2022/11/12 00:51:20;;;;;;;15.68;10.80;;;7.70;99.90;;;;;;4922514;29;20110;-69
2022/11/12 00:53:47;;;;;;;18.35;10.20;;;7.70;99.90;;;;;;4923001;29;20131;-70
2022/11/12 00:56:14;;;;;;;17.52;12.07;;;7.60;99.90;;;;;;4930955;29;21083;-69
2022/11/12 00:58:40;;;;;;;15.95;11.23;;;7.60;99.90;;;;;;4933762;29;20103;-70
2022/11/12 01:01:08;;;;;;;16.00;11.05;;;7.60;99.90;;;;;;4917534;29;20055;-70
2022/11/12 01:03:36;;;;;;;17.85;11.43;;;7.60;99.90;;;;;;4939230;29;20078;-68
2022/11/12 01:06:10;;;;;;;17.95;11.43;;;7.60;99.90;;;;;;4931332;28;20434;-71
2022/11/12 01:08:37;;;;;;;16.48;12.02;;;7.60;99.90;;;;;;4938230;28;20093;-69
2022/11/12 01:11:27;;;;;;;21.55;11.95;;;7.60;99.90;;;;;;4931564;29;20095;-70
2022/11/12 01:13:59;;;;;;;16.55;11.82;;;7.50;99.90;;;;;;4920849;29;20048;-70
2022/11/12 01:16:30;;;;;;;17.23;12.20;;;7.50;99.90;;;;;;4915644;29;20105;-70
2022/11/12 01:18:59;;;;;;;18.50;13.07;;;7.50;99.90;;;;;;4898755;29;20048;-70
2022/11/12 01:21:27;;;;;;;16.17;11.27;;;7.50;99.90;;;;;;4893484;29;20357;-70
2022/11/12 01:23:53;;;;;;;19.02;12.63;;;7.40;99.90;;;;;;4897142;29;20086;-70
2022/11/12 01:26:21;;;;;;;20.48;12.05;;;7.30;99.90;;;;;;4879984;29;20592;-70
2022/11/12 01:28:47;;;;;;;18.73;12.65;;;7.40;99.90;;;;;;4905171;29;20052;-72
2022/11/12 01:31:19;;;;;;;19.20;12.10;;;7.40;99.90;;;;;;4895140;29;20051;-72
2022/11/12 01:33:47;;;;;;;15.73;11.10;;;7.40;99.90;;;;;;4881836;29;20145;-72
2022/11/12 01:36:16;;;;;;;17.17;11.18;;;7.40;99.90;;;;;;4902376;29;20083;-68
2022/11/12 01:38:43;;;;;;;17.83;11.18;;;7.40;99.90;;;;;;4894327;29;20088;-68
2022/11/12 01:41:21;;;;;;;17.60;11.02;;;7.30;99.90;;;;;;4889835;29;20073;-70
2022/11/12 01:43:47;;;;;;;18.05;11.20;;;7.30;99.90;;;;;;4910522;29;20071;-70
2022/11/12 01:46:26;;;;;;;16.52;11.85;;;7.20;99.90;;;;;;4893979;29;20130;-70
2022/11/12 01:48:57;;;;;;;17.30;11.77;;;7.20;99.90;;;;;;4900169;29;20095;-68
2022/11/12 01:51:26;;;;;;;16.58;11.15;;;7.30;99.90;;;;;;4902781;29;20052;-70
2022/11/12 01:53:56;;;;;;;16.48;10.93;;;7.20;99.90;;;;;;4896453;29;20048;-70
2022/11/12 01:56:24;;;;;;;14.65;10.50;;;7.20;99.90;;;;;;4896044;29;20163;-71
2022/11/12 01:59:07;;;;;;;19.88;11.50;;;7.10;99.90;;;;;;4880111;29;20066;-71
2022/11/12 02:01:35;;;;;;;20.02;13.15;;;7.10;99.90;;;;;;4896284;29;20111;-72
2022/11/12 02:04:01;;;;;;;19.20;12.48;;;7.10;99.90;;;;;;4886999;29;20155;-70
2022/11/12 02:06:26;;;;;;;15.88;11.88;;;7.00;99.90;;;;;;4894463;29;20486;-70
2022/11/12 02:08:52;;;;;;;15.20;11.00;;;7.00;99.90;;;;;;4911315;29;20052;-71
2022/11/12 02:11:20;;;;;;;18.85;11.95;;;7.00;99.90;;;;;;4896563;29;20131;-71
2022/11/12 02:13:59;;;;;;;18.20;11.82;;;6.90;99.90;;;;;;4893487;29;20114;-69
2022/11/12 02:16:42;;;;;;;18.85;12.60;;;6.90;99.90;;;;;;4886388;29;20051;-72
2022/11/12 02:19:11;;;;;;;17.50;12.02;;;6.90;99.90;;;;;;4896465;29;20155;-73
2022/11/12 02:21:37;;;;;;;19.73;12.80;;;6.90;99.90;;;;;;4893817;29;20048;-69
2022/11/12 02:24:24;;;;;;;22.02;12.48;;;6.90;99.90;;;;;;4895452;29;20079;-71
2022/11/12 02:26:54;;;;;;;14.98;10.95;;;6.80;99.90;;;;;;4891573;29;20934;-72
2022/11/12 02:29:21;;;;;;;18.45;12.00;;;6.80;99.90;;;;;;4880842;29;20060;-71
2022/11/12 02:31:47;;;;;;;20.15;12.65;;;6.80;99.90;;;;;;4897887;29;20162;-71
2022/11/12 02:34:13;;;;;;;19.15;13.05;;;6.80;99.90;;;;;;4900014;29;20055;-70
2022/11/12 02:36:39;;;;;;;20.10;12.98;;;6.70;99.90;;;;;;4899319;29;21802;-72
2022/11/12 02:39:06;;;;;;;18.88;13.35;;;6.70;99.90;;;;;;4910648;29;20563;-72
2022/11/12 02:41:32;;;;;;;19.85;13.30;;;6.70;99.90;;;;;;4884250;29;20056;-69
2022/11/12 02:43:57;;;;;;;20.17;13.73;;;6.70;99.90;;;;;;4899665;29;20047;-72
2022/11/12 02:46:23;;;;;;;20.85;12.85;;;6.70;99.90;;;;;;4900013;29;20056;-71
2022/11/12 02:48:49;;;;;;;22.38;13.65;;;6.70;99.90;;;;;;4895758;29;20110;-71
2022/11/12 02:51:15;;;;;;;18.20;12.90;;;6.60;99.90;;;;;;4895529;29;20062;-69
2022/11/12 02:53:40;;;;;;;17.60;12.88;;;6.60;99.90;;;;;;4883472;29;20130;-69
2022/11/12 02:56:06;;;;;;;19.83;13.70;;;6.60;99.90;;;;;;4893382;29;20073;-71
2022/11/12 02:58:32;;;;;;;19.38;13.82;;;6.60;99.90;;;;;;4907215;29;20039;-72
2022/11/12 03:00:59;;;;;;;21.55;13.80;;;6.50;99.90;;;;;;4894707;29;20055;-72
2022/11/12 03:03:24;;;;;;;18.55;12.88;;;6.50;99.90;;;;;;4901365;29;20044;-68
2022/11/12 03:05:59;;;;;;;21.27;12.50;;;6.50;99.90;;;;;;4895111;29;20388;-72
2022/11/12 03:08:25;;;;;;;19.38;13.63;;;6.50;99.90;;;;;;4880018;29;20080;-72
2022/11/12 03:10:51;;;;;;;21.98;14.00;;;6.50;99.90;;;;;;4879237;29;20052;-71
2022/11/12 03:13:17;;;;;;;18.67;13.93;;;6.50;99.90;;;;;;4900549;29;20066;-71
2022/11/12 03:15:43;;;;;;;19.52;13.60;;;6.50;99.90;;;;;;4884273;29;20048;-72
2022/11/12 03:18:09;;;;;;;21.95;13.23;;;6.50;99.90;;;;;;4922273;28;20486;-71
2022/11/12 03:20:35;;;;;;;19.35;13.98;;;6.40;99.90;;;;;;4934866;28;20051;-68
2022/11/12 03:23:04;;;;;;;21.88;14.73;;;6.40;99.90;;;;;;4908169;29;20584;-71
2022/11/12 03:25:30;;;;;;;18.83;14.20;;;6.40;99.90;;;;;;4914730;29;20051;-70
2022/11/12 03:28:01;;;;;;;20.90;14.35;;;6.40;99.90;;;;;;4929118;28;20051;-70
2022/11/12 03:30:28;;;;;;;27.52;15.35;;;6.40;99.90;;;;;;4927292;29;20062;-71
2022/11/12 03:32:54;;;;;;;21.52;15.13;;;6.40;99.90;;;;;;4929447;28;20047;-72
2022/11/12 03:35:21;;;;;;;22.98;15.35;;;6.40;99.90;;;;;;4930057;28;20048;-72
2022/11/12 03:37:46;;;;;;;20.17;14.43;;;6.40;99.90;;;;;;4915147;29;20069;-72
2022/11/12 03:40:13;;;;;;;20.70;14.93;;;6.40;99.90;;;;;;4910221;29;20052;-72
2022/11/12 03:42:46;;;;;;;21.42;14.02;;;6.30;99.90;;;;;;4928707;29;20047;-69
2022/11/12 03:45:13;;;;;;;19.90;14.18;;;6.30;99.90;;;;;;4901825;29;20126;-68
2022/11/12 03:47:51;;;;;;;24.83;15.77;;;6.30;99.90;;;;;;4934804;29;20063;-71
2022/11/12 03:50:19;;;;;;;26.10;15.70;;;6.30;99.90;;;;;;4932681;28;20162;-70
2022/11/12 03:52:51;;;;;;;24.88;15.93;;;6.20;99.90;;;;;;4932842;28;20172;-70
2022/11/12 03:55:19;;;;;;;25.30;16.93;;;6.30;99.90;;;;;;4929051;28;20142;-70
2022/11/12 03:57:47;;;;;;;27.00;17.15;;;6.30;99.90;;;;;;4934047;28;20353;-72
2022/11/12 04:00:14;;;;;;;21.50;16.20;;;6.30;99.90;;;;;;4929262;28;20127;-72
2022/11/12 04:02:40;;;;;;;22.10;16.05;;;6.30;99.90;;;;;;4917165;29;20892;-71
2022/11/12 04:10:42;;;;;;;25.90;16.25;;;6.20;99.90;;;;;;4931867;28;20051;-70
2022/11/12 04:13:26;;;;;;;26.70;16.58;;;6.20;99.90;;;;;;4927240;28;20066;-71
2022/11/12 04:21:54;;;;;;;28.30;17.85;;;6.20;99.90;;;;;;4935261;29;20059;-69
2022/11/12 04:27:05;;;;;;;22.17;15.50;;;6.20;99.90;;;;;;4921461;29;20046;-71
2022/11/12 04:32:16;;;;;;;22.48;16.33;;;6.00;99.90;;;;;;4929919;28;21990;-71
2022/11/12 04:34:42;;;;;;;27.73;18.17;;;6.00;99.90;;;;;;4932646;28;20052;-72
2022/11/12 04:37:08;;;;;;;27.80;19.55;;;6.00;99.90;;;;;;4931553;29;20083;-70
2022/11/12 04:39:34;;;;;;;26.83;17.95;;;6.00;99.90;;;;;;4915625;29;20502;-71
2022/11/12 04:45:00;;;;;;;27.42;18.05;;;6.10;99.90;;;;;;4931092;29;20611;-71
2022/11/12 04:47:32;;;;;;;29.58;16.98;;;6.00;99.90;;;;;;4931296;29;20070;-72
2022/11/12 04:49:58;;;;;;;28.23;17.80;;;6.00;99.90;;;;;;4932712;29;20051;-71
2022/11/12 04:52:25;;;;;;;29.23;18.58;;;6.00;99.90;;;;;;4926878;28;20059;-69
2022/11/12 04:54:52;;;;;;;28.42;18.85;;;5.90;99.90;;;;;;4933781;29;20063;-69
2022/11/12 04:57:18;;;;;;;28.45;17.95;;;6.00;99.90;;;;;;4938257;29;20043;-71
2022/11/12 04:59:45;;;;;;;23.23;16.33;;;6.00;99.90;;;;;;4928840;29;20158;-72
2022/11/12 05:02:10;;;;;;;28.67;17.83;;;5.90;99.90;;;;;;4919139;29;20085;-71
2022/11/12 05:04:36;;;;;;;28.15;18.15;;;5.90;99.90;;;;;;4917294;29;20043;-72
2022/11/12 05:07:02;;;;;;;29.50;19.58;;;5.90;99.90;;;;;;4916403;29;20112;-70
2022/11/12 05:09:28;;;;;;;26.40;18.50;;;5.90;99.90;;;;;;4931108;29;20046;-71
2022/11/12 05:11:55;;;;;;;24.83;18.52;;;5.90;99.90;;;;;;4931251;29;20055;-68
2022/11/12 05:14:22;;;;;;;25.23;17.35;;;5.90;99.90;;;;;;4934823;29;20516;-70
2022/11/12 05:16:48;;;;;;;27.65;19.30;;;5.80;99.90;;;;;;4933299;29;20884;-72
2022/11/12 05:19:14;;;;;;;25.85;18.42;;;5.90;99.90;;;;;;4938131;29;20127;-71
2022/11/12 05:24:24;;;;;;;26.95;18.08;;;5.90;99.90;;;;;;4936801;29;20054;-72
2022/11/12 05:26:50;;;;;;;25.23;17.70;;;5.90;99.90;;;;;;4936526;29;20059;-71
2022/11/12 05:29:16;;;;;;;29.85;18.48;;;5.90;99.90;;;;;;4937578;29;20119;-70
2022/11/12 05:31:42;;;;;;;28.90;18.85;;;5.90;99.90;;;;;;4914742;29;20154;-71
2022/11/12 05:34:08;;;;;;;29.45;19.45;;;5.90;99.90;;;;;;4930348;29;20059;-68
2022/11/12 05:36:34;;;;;;;26.55;19.63;;;5.90;99.90;;;;;;4920745;29;20052;-70
2022/11/12 05:39:00;;;;;;;30.48;21.13;;;5.90;99.90;;;;;;4933055;29;20055;-72
2022/11/12 05:41:26;;;;;;;32.47;22.02;;;5.90;99.90;;;;;;4930712;28;20992;-69
2022/11/12 05:43:51;;;;;;;33.10;20.90;;;6.00;99.90;;;;;;4932089;29;20099;-71
2022/11/12 05:46:17;;;;;;;36.70;20.80;;;6.00;99.90;;;;;;4932436;28;20079;-71
2022/11/12 05:48:43;;;;;;;37.70;21.85;;;6.00;99.90;;;;;;4909973;28;20513;-72
2022/11/12 05:51:12;;;;;;;51.78;24.95;;;6.10;99.90;;;;;;4915122;29;20083;-68
2022/11/12 05:53:39;;;;;;;74.28;27.67;;;6.10;99.90;;;;;;4915493;29;20897;-70
2022/11/12 05:56:05;;;;;;;58.70;28.08;;;6.20;99.90;;;;;;4931395;29;20047;-72
2022/11/12 05:58:32;;;;;;;63.50;28.48;;;6.20;99.90;;;;;;4932286;29;20051;-72
2022/11/12 06:00:58;;;;;;;63.38;27.52;;;6.20;99.90;;;;;;4936883;29;22369;-71
2022/11/12 06:03:25;;;;;;;54.35;27.65;;;6.20;99.90;;;;;;4931396;28;20071;-71
2022/11/12 06:05:51;;;;;;;53.03;27.98;;;6.30;99.90;;;;;;4933177;28;20054;-71
2022/11/12 06:08:17;;;;;;;51.17;27.13;;;6.30;99.90;;;;;;4931281;29;20102;-70
2022/11/12 06:10:48;;;;;;;39.00;25.70;;;6.30;99.90;;;;;;4929839;29;20086;-71
2022/11/12 06:13:14;;;;;;;35.05;23.98;;;6.30;99.90;;;;;;4929557;28;20055;-71
2022/11/12 06:15:40;;;;;;;37.28;23.27;;;6.40;99.90;;;;;;4930207;28;20102;-71
2022/11/12 06:18:06;;;;;;;34.45;23.25;;;6.40;99.90;;;;;;4913788;29;20193;-71
2022/11/12 06:20:31;;;;;;;28.92;20.75;;;6.40;99.90;;;;;;4913331;29;20047;-72
2022/11/12 06:22:57;;;;;;;27.42;19.02;;;6.40;99.90;;;;;;4919665;29;20047;-69
2022/11/12 06:25:23;;;;;;;31.80;20.05;;;6.30;99.90;;;;;;4935239;29;20048;-71
2022/11/12 06:27:48;;;;;;;28.25;18.73;;;6.30;99.90;;;;;;4920627;29;20066;-69
2022/11/12 06:30:14;;;;;;;27.23;19.30;;;6.30;99.90;;;;;;4905656;29;20051;-72
2022/11/12 06:32:40;;;;;;;27.92;19.15;;;6.20;99.90;;;;;;4925721;29;20422;-69
2022/11/12 06:35:06;;;;;;;25.98;18.98;;;6.20;99.90;;;;;;4915517;29;20047;-70
2022/11/12 06:37:32;;;;;;;26.33;19.65;;;6.20;99.90;;;;;;4929842;29;20080;-70
2022/11/12 06:39:58;;;;;;;24.75;17.58;;;6.10;99.90;;;;;;4924977;28;20166;-71
2022/11/12 06:42:23;;;;;;;26.85;18.55;;;6.10;99.90;;;;;;4914170;28;20511;-69
2022/11/12 06:44:49;;;;;;;32.50;19.20;;;6.10;99.90;;;;;;4929533;29;20055;-71
2022/11/12 06:47:15;;;;;;;29.55;20.15;;;6.10;99.90;;;;;;4927985;29;20051;-72
2022/11/12 06:49:41;;;;;;;29.15;19.58;;;6.10;99.90;;;;;;4931398;29;20043;-71
2022/11/12 06:52:06;;;;;;;56.70;23.10;;;6.10;99.90;;;;;;4919169;29;20062;-72
2022/11/12 06:54:32;;;;;;;39.15;23.40;;;6.10;99.90;;;;;;4911822;29;20273;-68
2022/11/12 06:56:58;;;;;;;63.05;27.83;;;6.10;99.90;;;;;;4927113;28;20084;-72
2022/11/12 06:59:24;;;;;;;101.13;29.40;;;6.10;99.90;;;;;;4932649;28;20092;-70
2022/11/12 07:01:49;;;;;;;96.03;27.85;;;6.20;99.90;;;;;;4919639;29;21387;-70
2022/11/12 07:04:15;;;;;;;87.00;29.90;;;6.20;99.90;;;;;;4926655;28;20055;-71
2022/11/12 07:06:41;;;;;;;47.05;25.08;;;6.20;99.90;;;;;;4931759;28;20098;-70
2022/11/12 07:09:07;;;;;;;48.53;25.20;;;6.20;99.90;;;;;;4903361;28;20142;-71
2022/11/12 07:11:33;;;;;;;57.47;26.55;;;6.20;99.90;;;;;;4915334;29;20097;-72
2022/11/12 07:13:59;;;;;;;77.45;27.27;;;6.30;99.90;;;;;;4919395;29;20063;-72
2022/11/12 07:16:25;;;;;;;99.55;28.77;;;6.30;99.90;;;;;;4929748;29;20486;-71
2022/11/12 07:18:51;;;;;;;85.60;28.77;;;6.40;99.90;;;;;;4910417;29;20051;-72
2022/11/12 07:21:20;;;;;;;47.00;25.27;;;6.30;99.90;;;;;;4895512;29;20677;-70
2022/11/12 07:23:46;;;;;;;42.70;23.05;;;6.30;99.90;;;;;;4896535;29;20099;-72
2022/11/12 07:26:19;;;;;;;88.95;24.75;;;6.30;99.90;;;;;;4896405;29;20076;-72
2022/11/12 07:28:46;;;;;;;80.47;26.10;;;6.30;99.90;;;;;;4896560;29;20447;-72
2022/11/12 07:31:14;;;;;;;71.90;23.52;;;6.40;99.90;;;;;;4896922;29;20408;-70
2022/11/12 07:33:40;;;;;;;56.15;22.75;;;6.30;99.90;;;;;;4896222;29;20051;-71
2022/11/12 07:36:12;;;;;;;78.53;24.45;;;6.30;99.90;;;;;;4904790;29;20048;-71
2022/11/12 07:38:39;;;;;;;70.07;22.83;;;6.30;99.90;;;;;;4896798;29;20163;-69
2022/11/12 07:41:14;;;;;;;65.00;21.63;;;6.30;99.90;;;;;;4899671;29;20984;-72
2022/11/12 07:43:41;;;;;;;100.13;23.80;;;6.30;99.90;;;;;;4903328;29;20062;-68
2022/11/12 07:46:13;;;;;;;94.18;23.02;;;6.30;99.90;;;;;;4897235;29;20048;-72
2022/11/12 07:48:40;;;;;;;140.82;24.80;;;6.30;99.90;;;;;;4897825;29;20048;-72
2022/11/12 07:51:11;;;;;;;82.68;24.65;;;6.30;99.90;;;;;;4904677;29;20052;-71
2022/11/12 07:53:37;;;;;;;68.05;25.08;;;6.30;99.90;;;;;;4901318;29;20503;-71
2022/11/12 07:56:03;;;;;;;96.05;23.95;;;6.30;99.90;;;;;;4883006;29;20137;-72
2022/11/12 07:58:32;;;;;;;156.13;32.95;;;6.30;99.90;;;;;;4896356;29;20553;-69
2022/11/12 08:01:05;;;;;;;132.80;27.52;;;6.30;99.90;;;;;;4905298;29;20067;-72
2022/11/12 08:03:31;;;;;;;106.40;26.90;;;6.30;99.90;;;;;;4903434;29;20044;-72
2022/11/12 08:06:00;;;;;;;91.57;26.55;;;6.40;99.90;;;;;;4897510;29;20082;-72
2022/11/12 08:08:25;;;;;;;115.35;27.92;;;6.40;99.90;;;;;;4903286;29;20052;-71
2022/11/12 08:10:55;;;;;;;88.60;29.10;;;6.40;99.90;;;;;;4902473;29;20491;-71
2022/11/12 08:13:21;;;;;;;138.25;30.95;;;6.40;99.90;;;;;;4879918;29;20048;-71
2022/11/12 08:15:47;;;;;;;176.07;30.63;;;6.50;99.90;;;;;;4897811;29;20119;-72
2022/11/12 08:18:13;;;;;;;105.68;30.77;;;6.50;99.90;;;;;;4916643;29;20063;-72
2022/11/12 08:20:39;;;;;;;145.85;32.08;;;6.50;99.90;;;;;;4931789;28;20571;-73
2022/11/12 08:23:05;;;;;;;122.32;31.65;;;6.50;99.90;;;;;;4915183;29;20138;-72
2022/11/12 08:25:31;;;;;;;83.63;27.60;;;6.50;99.90;;;;;;4915159;29;20058;-70
2022/11/12 08:27:58;;;;;;;184.10;33.22;;;6.60;99.90;;;;;;4917041;29;20055;-71
2022/11/12 08:30:27;;;;;;;148.48;35.03;;;6.60;99.90;;;;;;4936103;29;20419;-72
2022/11/12 08:33:02;;;;;;;59.58;27.65;;;6.60;99.90;;;;;;4935281;29;20502;-72
2022/11/12 08:35:29;;;;;;;107.25;29.45;;;6.70;99.90;;;;;;4942266;29;20087;-70
2022/11/12 08:38:03;;;;;;;106.43;32.08;;;6.70;99.90;;;;;;4934617;29;20055;-73
2022/11/12 08:40:31;;;;;;;139.70;33.75;;;6.70;99.90;;;;;;4933717;28;20070;-73
2022/11/12 08:43:08;;;;;;;99.07;33.72;;;6.80;99.90;;;;;;4917674;29;20075;-71
2022/11/12 08:45:39;;;;;;;142.05;33.20;;;6.80;99.90;;;;;;4935385;29;20047;-70
2022/11/12 08:48:08;;;;;;;147.23;37.08;;;6.90;99.90;;;;;;4918917;29;20054;-71
2022/11/12 08:50:35;;;;;;;134.00;34.70;;;6.90;99.90;;;;;;4942592;29;20056;-72
2022/11/12 08:53:05;;;;;;;83.97;29.30;;;7.00;99.90;;;;;;4918540;29;20055;-72
2022/11/12 08:55:32;;;;;;;138.10;34.25;;;7.00;99.90;;;;;;4936390;29;20047;-71
2022/11/12 08:58:01;;;;;;;119.85;33.13;;;7.10;99.90;;;;;;4936108;28;20055;-72
2022/11/12 09:00:32;;;;;;;112.85;30.90;;;7.10;99.90;;;;;;4935175;29;20043;-72
2022/11/12 09:03:03;;;;;;;111.15;31.55;;;7.20;99.90;;;;;;4943882;29;20263;-72
2022/11/12 09:05:29;;;;;;;159.70;37.10;;;7.20;99.90;;;;;;4936798;29;20455;-70
2022/11/12 09:08:09;;;;;;;107.30;33.15;;;7.30;99.90;;;;;;4911767;29;20122;-71
2022/11/12 09:10:36;;;;;;;117.13;33.90;;;7.30;99.90;;;;;;4943836;29;20371;-72
2022/11/12 09:13:02;;;;;;;98.88;30.92;;;7.40;99.90;;;;;;4942618;29;20051;-72
2022/11/12 09:15:29;;;;;;;96.30;31.15;;;7.50;99.90;;;;;;4936081;28;20479;-72
2022/11/12 09:17:59;;;;;;;106.38;31.70;;;7.50;99.90;;;;;;4939842;28;20418;-72
2022/11/12 09:20:27;;;;;;;81.95;32.15;;;7.60;99.90;;;;;;4935941;29;20040;-71
2022/11/12 09:22:56;;;;;;;193.35;35.90;;;7.60;99.90;;;;;;4942971;28;20048;-71
2022/11/12 09:25:22;;;;;;;139.45;34.03;;;7.70;99.90;;;;;;4933805;29;20154;-71
2022/11/12 09:27:48;;;;;;;166.48;37.00;;;7.80;99.90;;;;;;4910874;29;20086;-72
2022/11/12 09:30:14;;;;;;;143.57;33.70;;;7.80;99.90;;;;;;4909511;29;20091;-71
2022/11/12 09:32:40;;;;;;;221.90;39.45;;;7.80;99.90;;;;;;4917061;29;20047;-72
2022/11/12 09:35:06;;;;;;;119.18;33.67;;;7.90;99.90;;;;;;4939968;29;20047;-71
2022/11/12 09:37:32;;;;;;;188.35;35.38;;;7.90;99.90;;;;;;4924729;28;20056;-69
2022/11/12 09:39:57;;;;;;;245.10;39.97;;;8.00;99.90;;;;;;4932382;28;20053;-72
2022/11/12 09:42:24;;;;;;;140.60;35.55;;;8.00;99.90;;;;;;4923906;29;20079;-71
2022/11/12 09:45:00;;;;;;;150.20;33.40;;;8.10;99.90;;;;;;4933150;29;20061;-69
2022/11/12 09:47:31;;;;;;;97.00;31.52;;;8.10;99.90;;;;;;4926098;29;20043;-72
2022/11/12 09:50:20;;;;;;;123.60;32.28;;;8.10;99.90;;;;;;4917345;29;20048;-69
2022/11/12 09:52:49;;;;;;;120.35;32.20;;;8.10;99.90;;;;;;4934830;29;20418;-72
2022/11/12 09:55:30;;;;;;;131.25;32.60;;;8.20;99.90;;;;;;4916784;29;20057;-68
2022/11/12 09:57:56;;;;;;;127.95;31.33;;;8.20;99.90;;;;;;4929489;28;20898;-71
2022/11/12 10:00:22;;;;;;;105.40;30.77;;;8.20;99.90;;;;;;4912939;29;20176;-71
2022/11/12 10:03:06;;;;;;;187.30;34.88;;;8.20;99.90;;;;;;4917366;29;21036;-71
2022/11/12 10:05:49;;;;;;;132.48;32.28;;;8.20;99.90;;;;;;4933979;28;20073;-69
2022/11/12 10:08:32;;;;;;;126.43;32.72;;;8.30;99.90;;;;;;4930061;28;20047;-73
2022/11/12 10:11:19;;;;;;;116.63;31.83;;;8.30;99.90;;;;;;4927728;28;20055;-69
2022/11/12 10:14:07;;;;;;;122.15;32.03;;;8.40;99.90;;;;;;4929951;29;20085;-72
2022/11/12 10:16:55;;;;;;;141.60;34.58;;;8.30;99.90;;;;;;4930857;29;20872;-72
2022/11/12 10:19:39;;;;;;;126.03;32.95;;;8.40;99.90;;;;;;4911442;29;20083;-73
2022/11/12 10:22:17;;;;;;;79.18;31.27;;;8.40;99.90;;;;;;4892570;29;20035;-68
2022/11/12 10:24:44;;;;;;;81.72;31.08;;;8.40;99.90;;;;;;4892706;29;20051;-71
2022/11/12 10:27:17;;;;;;;99.32;32.63;;;8.40;99.90;;;;;;4896064;29;20054;-71
2022/11/12 10:29:58;;;;;;;85.72;30.23;;;8.50;99.90;;;;;;4894469;29;20510;-69
2022/11/12 10:32:24;;;;;;;95.43;31.02;;;8.50;99.90;;;;;;4880594;29;20055;-70
2022/11/12 10:34:50;;;;;;;80.93;31.48;;;8.50;99.90;;;;;;4910174;29;20444;-72
2022/11/12 10:37:40;;;;;;;91.93;32.17;;;8.50;99.90;;;;;;4900183;29;20525;-72
2022/11/12 10:40:23;;;;;;;87.78;29.98;;;8.60;99.90;;;;;;4910472;29;20044;-73
2022/11/12 10:43:04;;;;;;;93.07;31.50;;;8.60;99.90;;;;;;4882806;29;20051;-68
2022/11/12 10:45:31;;;;;;;91.32;31.52;;;8.60;99.90;;;;;;4897667;29;20501;-71
2022/11/12 10:47:58;;;;;;;91.28;29.73;;;8.60;99.90;;;;;;4893198;29;20055;-68
2022/11/12 10:50:41;;;;;;;74.18;30.95;;;8.60;99.90;;;;;;4903176;28;20111;-73
2022/11/12 10:53:11;;;;;;;96.75;32.28;;;8.60;99.90;;;;;;4882261;29;20055;-72
2022/11/12 10:55:54;;;;;;;75.93;31.45;;;8.60;99.90;;;;;;4894571;29;20062;-70
2022/11/12 10:58:21;;;;;;;64.43;30.38;;;8.60;99.90;;;;;;4894246;29;20051;-68
2022/11/12 11:00:54;;;;;;;49.63;26.52;;;8.60;99.90;;;;;;4895102;29;20139;-72
2022/11/12 11:03:30;;;;;;;63.05;28.65;;;8.70;99.90;;;;;;4901082;29;20096;-69
2022/11/12 11:06:05;;;;;;;56.03;28.17;;;8.70;99.90;;;;;;4898989;29;20383;-71
2022/11/12 11:08:42;;;;;;;52.05;26.92;;;8.60;99.90;;;;;;4878053;29;20048;-72
2022/11/12 11:11:29;;;;;;;57.60;28.80;;;8.60;99.90;;;;;;4896270;29;20554;-71
2022/11/12 11:14:19;;;;;;;55.92;28.15;;;8.60;99.90;;;;;;4894078;29;20147;-71
2022/11/12 11:17:00;;;;;;;55.33;27.20;;;8.60;99.90;;;;;;4880454;29;20129;-71
2022/11/12 11:19:34;;;;;;;47.00;26.48;;;8.70;99.90;;;;;;4925240;28;20482;-71
2022/11/12 11:22:28;;;;;;;50.00;27.52;;;8.70;99.90;;;;;;4930405;29;20047;-71
2022/11/12 11:24:57;;;;;;;70.57;28.00;;;8.70;99.90;;;;;;4923689;29;20126;-70
2022/11/12 11:27:54;;;;;;;58.42;27.38;;;8.70;99.90;;;;;;4927600;29;20054;-72
2022/11/12 11:30:21;;;;;;;50.55;27.80;;;8.70;99.90;;;;;;4936125;29;20961;-70
2022/11/12 11:33:02;;;;;;;58.13;30.00;;;8.70;99.90;;;;;;4927098;28;20063;-72
2022/11/12 11:35:39;;;;;;;51.78;27.17;;;8.70;99.90;;;;;;4925441;28;20047;-69
2022/11/12 11:38:21;;;;;;;46.42;27.00;;;8.80;99.90;;;;;;4929104;29;20376;-72
2022/11/12 11:40:46;;;;;;;44.30;26.92;;;8.80;99.90;;;;;;4937293;29;20056;-71
2022/11/12 11:43:37;;;;;;;44.00;26.52;;;8.80;99.90;;;;;;4927659;29;20589;-72
2022/11/12 11:46:09;;;;;;;48.78;27.50;;;8.80;99.90;;;;;;4926701;28;20398;-72
2022/11/12 11:49:13;;;;;;;47.92;27.75;;;8.80;99.90;;;;;;4930668;29;20502;-70
2022/11/12 11:52:00;;;;;;;50.92;26.85;;;8.90;99.90;;;;;;4914604;29;20067;-72
2022/11/12 11:54:34;;;;;;;50.30;28.80;;;8.90;99.90;;;;;;4929271;28;20561;-73
2022/11/12 11:57:09;;;;;;;49.10;28.10;;;9.00;99.90;;;;;;4926736;29;20063;-70
2022/11/12 12:00:03;;;;;;;46.10;27.25;;;9.00;99.90;;;;;;4927237;29;20048;-68
2022/11/12 12:02:55;;;;;;;44.80;27.13;;;9.00;99.90;;;;;;4927969;28;20047;-70
2022/11/12 12:05:33;;;;;;;45.28;26.70;;;9.00;99.90;;;;;;4917263;29;20098;-71
2022/11/12 12:08:02;;;;;;;46.47;28.30;;;9.10;99.90;;;;;;4929242;28;20146;-72
2022/11/12 12:10:55;;;;;;;47.63;28.17;;;9.10;99.90;;;;;;4932322;29;20433;-72
2022/11/12 12:13:44;;;;;;;41.35;26.98;;;9.10;99.90;;;;;;4932442;28;20051;-70
2022/11/12 12:16:38;;;;;;;39.85;27.13;;;9.20;99.90;;;;;;4934142;29;20043;-71
2022/11/12 12:19:15;;;;;;;43.63;27.63;;;9.10;99.90;;;;;;4922123;29;20051;-71
2022/11/12 12:21:45;;;;;;;42.35;26.83;;;9.20;99.90;;;;;;4943678;29;20103;-71
2022/11/12 12:24:26;;;;;;;44.75;28.45;;;9.20;99.90;;;;;;4934967;29;20059;-71
2022/11/12 12:27:24;;;;;;;47.85;29.63;;;9.30;99.90;;;;;;4951500;28;20082;-70
2022/11/12 12:29:55;;;;;;;48.47;28.60;;;9.30;99.90;;;;;;4930145;29;20055;-72
2022/11/12 12:32:51;;;;;;;44.35;28.13;;;9.30;99.90;;;;;;4934782;29;20051;-71
2022/11/12 12:35:58;;;;;;;44.42;28.60;;;9.40;99.90;;;;;;4930838;29;20082;-71
2022/11/12 12:38:28;;;;;;;42.55;27.30;;;9.40;99.90;;;;;;4883747;29;20048;-71
2022/11/12 12:41:10;;;;;;;44.55;29.65;;;9.40;99.90;;;;;;4898501;29;20058;-71
2022/11/12 12:43:45;;;;;;;45.55;28.52;;;9.40;99.90;;;;;;4917460;29;20059;-71
2022/11/12 12:46:13;;;;;;;46.25;28.17;;;9.40;99.90;;;;;;4929093;29;20057;-71
2022/11/12 12:48:45;;;;;;;41.40;27.73;;;9.50;99.90;;;;;;4918052;29;20059;-71
2022/11/12 12:51:11;;;;;;;46.40;28.88;;;9.50;99.90;;;;;;4935199;29;20476;-71
2022/11/12 12:53:37;;;;;;;43.80;29.98;;;9.50;99.90;;;;;;4934563;29;20055;-70
2022/11/12 12:56:32;;;;;;;43.95;29.08;;;9.50;99.90;;;;;;4943136;29;20058;-72
2022/11/12 12:59:02;;;;;;;43.05;29.73;;;9.50;99.90;;;;;;4942133;29;20624;-71
2022/11/12 13:01:30;;;;;;;42.80;29.45;;;9.50;99.90;;;;;;4935279;29;20106;-69
2022/11/12 13:04:02;;;;;;;42.83;30.20;;;9.50;99.90;;;;;;4950244;28;20632;-71
2022/11/12 13:06:45;;;;;;;43.60;29.85;;;9.50;99.90;;;;;;4934278;29;20043;-71
2022/11/12 13:09:11;;;;;;;46.88;30.13;;;9.60;99.90;;;;;;4934846;29;20047;-71
2022/11/12 13:14:30;;;;;;;45.00;29.75;;;9.60;99.90;;;;;;4942031;28;20048;-72
2022/11/12 13:17:45;;;;;;;46.53;31.27;;;9.60;99.90;;;;;;4942160;29;20059;-71